Time;durP1;ratioP1;P1;durP2;ratioP2;P2;SDS_P1;SDS_P2;PMS_P1;PMS_P2;Temp;Humidity;BMP_temperature;BMP_pressure;BME280_temperature;BME280_humidity;BME280_pressure;Samples;Min_cycle;Max_cycle;Signal;HPM_P1;HPM_P2
2021/10/19 00:02:24;;;;;;;49.30;30.45;;;;;;;7.53;71.83;95422.85;1634728;87;21126;-67
2021/10/19 00:04:50;;;;;;;63.85;35.50;;;;;;;7.44;72.30;95413.02;1630490;86;21144;-66
2021/10/19 00:07:17;;;;;;;66.90;37.58;;;;;;;7.44;72.10;95415.75;1633125;86;21454;-67
2021/10/19 00:09:44;;;;;;;63.92;36.40;;;;;;;7.42;72.05;95416.76;1640598;86;21105;-68
2021/10/19 00:12:10;;;;;;;58.38;34.33;;;;;;;7.38;71.98;95411.90;1641922;86;20990;-66
2021/10/19 00:14:37;;;;;;;64.53;36.00;;;;;;;7.32;71.78;95416.89;1648435;86;20967;-67
2021/10/19 00:17:04;;;;;;;66.15;35.63;;;;;;;7.27;72.05;95416.74;1641824;85;21841;-66
2021/10/19 00:19:30;;;;;;;54.03;33.85;;;;;;;7.24;72.08;95421.67;1646079;85;21015;-66
2021/10/19 00:21:57;;;;;;;64.22;29.45;;;;;;;7.19;72.26;95420.73;1647624;86;21489;-66
2021/10/19 00:24:24;;;;;;;68.22;39.88;;;;;;;7.09;72.51;95420.28;1637763;86;21534;-67
2021/10/19 00:26:52;;;;;;;46.73;31.45;;;;;;;6.88;72.74;95417.59;1636747;86;21040;-67
2021/10/19 00:29:19;;;;;;;40.85;27.95;;;;;;;6.71;72.96;95412.48;1640429;87;21070;-67
2021/10/19 00:31:45;;;;;;;38.90;30.30;;;;;;;6.67;72.78;95422.68;1646547;86;21090;-67
2021/10/19 00:34:12;;;;;;;37.13;27.48;;;;;;;6.58;72.64;95417.50;1643434;85;20982;-67
2021/10/19 00:36:39;;;;;;;41.90;26.10;;;;;;;6.55;72.81;95419.68;1632696;87;21016;-67
2021/10/19 00:39:05;;;;;;;33.63;23.05;;;;;;;6.53;72.71;95422.80;1639901;87;21095;-66
2021/10/19 00:41:33;;;;;;;40.85;23.57;;;;;;;6.48;72.84;95418.39;1641250;86;21169;-67
2021/10/19 00:43:59;;;;;;;32.50;19.45;;;;;;;6.45;72.70;95417.23;1635378;85;20968;-66
2021/10/19 00:46:26;;;;;;;32.50;19.73;;;;;;;6.39;72.70;95422.16;1624259;86;20982;-67
2021/10/19 00:48:53;;;;;;;27.25;19.05;;;;;;;6.41;72.75;95426.63;1634979;86;20972;-66
2021/10/19 00:51:19;;;;;;;24.65;16.85;;;;;;;6.39;72.41;95429.78;1642151;87;20983;-67
2021/10/19 00:53:46;;;;;;;28.25;14.30;;;;;;;6.29;72.32;95433.94;1625765;87;21149;-67
2021/10/19 00:56:13;;;;;;;26.62;14.58;;;;;;;6.13;72.75;95441.30;1639077;87;21047;-66
2021/10/19 00:58:40;;;;;;;23.07;14.03;;;;;;;6.03;72.95;95441.38;1636357;85;21522;-67
2021/10/19 01:01:07;;;;;;;22.22;14.58;;;;;;;5.92;73.15;95442.81;1629188;86;21102;-66
2021/10/19 01:03:34;;;;;;;21.73;14.10;;;;;;;5.83;73.47;95447.93;1646471;86;20971;-66
2021/10/19 01:06:04;;;;;;;24.15;15.63;;;;;;;5.77;73.50;95446.02;1652131;86;21163;-65
2021/10/19 01:08:30;;;;;;;24.37;14.90;;;;;;;5.71;73.63;95435.30;1642150;87;21125;-67
2021/10/19 01:10:57;;;;;;;27.48;17.15;;;;;;;5.67;73.87;95433.19;1644802;86;21075;-66
2021/10/19 01:13:26;;;;;;;25.37;16.87;;;;;;;5.63;73.97;95435.17;1648895;86;21042;-66
2021/10/19 01:16:05;;;;;;;27.67;17.00;;;;;;;5.63;73.67;95442.75;1641733;85;21587;-66
2021/10/19 01:18:32;;;;;;;30.08;18.07;;;;;;;5.67;73.36;95446.84;1634535;87;21927;-67
2021/10/19 01:20:59;;;;;;;33.78;22.65;;;;;;;5.70;73.37;95439.20;1640354;86;21154;-68
2021/10/19 01:23:26;;;;;;;35.33;22.35;;;;;;;5.74;73.30;95439.95;1633804;85;21094;-66
2021/10/19 01:25:52;;;;;;;29.50;20.35;;;;;;;5.73;73.46;95443.87;1635667;85;20983;-65
2021/10/19 01:28:19;;;;;;;30.02;19.07;;;;;;;5.71;73.25;95442.13;1638549;86;21022;-66
2021/10/19 01:30:48;;;;;;;43.65;24.70;;;;;;;5.66;73.01;95443.34;1644844;85;22354;-64
2021/10/19 01:33:15;;;;;;;44.58;26.33;;;;;;;5.58;73.02;95439.69;1648582;85;21526;-65
2021/10/19 01:35:46;;;;;;;36.95;23.15;;;;;;;5.48;73.72;95430.95;1648931;86;21054;-67
2021/10/19 01:38:17;;;;;;;25.35;16.95;;;;;;;5.42;73.45;95430.59;1644984;87;21213;-67
2021/10/19 01:40:44;;;;;;;26.95;18.02;;;;;;;5.34;73.23;95437.27;1648803;84;21077;-66
2021/10/19 01:43:18;;;;;;;27.42;17.75;;;;;;;5.29;73.39;95440.41;1644320;85;21120;-67
2021/10/19 01:45:51;;;;;;;26.70;18.50;;;;;;;5.23;73.80;95435.76;1647177;86;21023;-66
2021/10/19 01:48:18;;;;;;;39.35;19.60;;;;;;;5.23;73.96;95443.94;1633229;86;21023;-66
2021/10/19 01:50:45;;;;;;;26.93;16.77;;;;;;;5.21;73.93;95442.20;1643255;86;21058;-67
2021/10/19 01:53:12;;;;;;;26.97;17.37;;;;;;;5.17;73.78;95434.59;1639053;86;23060;-66
2021/10/19 01:55:40;;;;;;;26.57;18.85;;;;;;;5.07;73.42;95435.42;1629903;87;21146;-67
2021/10/19 01:58:07;;;;;;;22.62;14.47;;;;;;;5.00;73.52;95438.16;1633645;86;21589;-67
2021/10/19 02:00:35;;;;;;;26.60;16.67;;;;;;;4.98;73.63;95429.59;1645704;87;20979;-66
2021/10/19 02:03:08;;;;;;;22.90;16.35;;;;;;;4.98;73.65;95435.05;1644786;86;21022;-66
2021/10/19 02:05:35;;;;;;;26.17;16.07;;;;;;;4.99;73.53;95436.61;1647324;87;21078;-66
2021/10/19 02:08:04;;;;;;;28.07;17.60;;;;;;;4.95;73.38;95433.12;1638919;85;21149;-66
2021/10/19 02:10:32;;;;;;;31.93;16.82;;;;;;;4.96;73.48;95438.77;1631178;86;20979;-66
2021/10/19 02:12:58;;;;;;;23.38;15.18;;;;;;;4.95;73.24;95440.53;1634587;86;21087;-66
2021/10/19 02:15:28;;;;;;;28.85;16.40;;;;;;;4.90;72.86;95443.64;1637163;86;21086;-68
2021/10/19 02:17:55;;;;;;;31.57;16.73;;;;;;;4.84;73.00;95437.84;1645256;85;21110;-66
2021/10/19 02:20:23;;;;;;;25.85;15.98;;;;;;;4.84;72.93;95428.87;1634026;85;21181;-67
2021/10/19 02:22:51;;;;;;;24.32;14.60;;;;;;;4.83;72.84;95430.80;1638676;87;21076;-66
2021/10/19 02:25:19;;;;;;;22.90;14.55;;;;;;;4.80;72.72;95431.59;1650948;86;21019;-66
2021/10/19 02:27:46;;;;;;;21.30;14.33;;;;;;;4.79;72.53;95433.38;1640375;85;21049;-66
2021/10/19 02:30:14;;;;;;;33.60;24.12;;;;;;;4.77;72.58;95436.48;1644709;85;21031;-66
2021/10/19 02:32:40;;;;;;;25.62;17.65;;;;;;;4.78;72.54;95442.12;1638468;86;21136;-68
2021/10/19 02:35:09;;;;;;;25.77;16.48;;;;;;;4.78;72.54;95457.11;1643946;85;21065;-66
2021/10/19 02:37:36;;;;;;;24.80;16.40;;;;;;;4.75;72.68;95461.98;1639292;86;21002;-66
2021/10/19 02:40:04;;;;;;;27.98;17.42;;;;;;;4.72;72.92;95462.78;1630205;85;21589;-67
2021/10/19 02:42:31;;;;;;;22.98;14.83;;;;;;;4.62;73.21;95469.00;1638725;86;20955;-67
2021/10/19 02:44:59;;;;;;;30.88;16.87;;;;;;;4.56;73.59;95462.41;1636610;85;21117;-66
2021/10/19 02:47:26;;;;;;;24.05;17.02;;;;;;;4.53;73.71;95476.81;1630746;86;21502;-66
2021/10/19 02:49:53;;;;;;;29.92;20.70;;;;;;;4.44;73.60;95476.41;1654698;86;20983;-67
2021/10/19 02:52:19;;;;;;;33.85;21.68;;;;;;;4.36;73.72;95476.23;1636371;85;21011;-66
2021/10/19 02:54:46;;;;;;;31.52;22.87;;;;;;;4.33;73.88;95482.47;1638406;86;21076;-66
2021/10/19 02:57:13;;;;;;;64.30;34.65;;;;;;;4.25;74.19;95486.34;1645133;85;21144;-66
2021/10/19 02:59:39;;;;;;;59.48;31.93;;;;;;;4.19;74.30;95489.27;1634392;87;21019;-66
2021/10/19 03:02:06;;;;;;;42.93;25.08;;;;;;;4.21;74.55;95478.76;1635617;85;21094;-65
2021/10/19 03:04:33;;;;;;;36.10;24.15;;;;;;;4.28;74.30;95456.96;1633002;85;20994;-66
2021/10/19 03:06:59;;;;;;;37.35;23.22;;;;;;;4.33;74.63;95463.41;1633100;86;21027;-66
2021/10/19 03:09:26;;;;;;;35.28;22.52;;;;;;;4.44;74.50;95454.62;1642860;86;21151;-67
2021/10/19 03:11:53;;;;;;;34.05;21.10;;;;;;;4.51;74.17;95450.55;1648359;85;20967;-67
2021/10/19 03:14:19;;;;;;;33.20;21.45;;;;;;;4.53;73.98;95437.31;1635521;86;21066;-67
2021/10/19 03:16:47;;;;;;;38.15;23.18;;;;;;;4.54;74.37;95445.67;1634272;85;21570;-66
2021/10/19 03:19:13;;;;;;;95.53;50.90;;;;;;;4.62;74.29;95449.94;1636928;87;20975;-68
2021/10/19 03:21:40;;;;;;;67.12;38.15;;;;;;;4.64;73.83;95446.83;1640860;87;21061;-66
2021/10/19 03:24:06;;;;;;;156.07;84.80;;;;;;;4.58;74.01;95462.03;1636907;86;21027;-67
2021/10/19 03:26:33;;;;;;;86.78;41.15;;;;;;;4.58;74.06;95455.98;1652795;86;20975;-66
2021/10/19 03:29:00;;;;;;;73.57;41.55;;;;;;;4.59;74.20;95454.80;1610442;87;39698;-66
2021/10/19 03:31:30;;;;;;;70.83;41.45;;;;;;;4.62;74.22;95455.98;1636679;86;21551;-67
2021/10/19 03:33:55;;;;;;;58.87;33.45;;;;;;;4.66;74.24;95458.91;1648327;85;21903;-66
2021/10/19 03:36:22;;;;;;;43.42;28.42;;;;;;;4.70;74.10;95460.23;1644975;87;20975;-67
2021/10/19 03:38:49;;;;;;;40.65;27.55;;;;;;;4.73;73.61;95469.78;1643685;85;21026;-68
2021/10/19 03:41:15;;;;;;;29.77;19.05;;;;;;;4.63;73.40;95467.83;1641730;86;21070;-66
2021/10/19 03:43:42;;;;;;;27.00;18.27;;;;;;;4.49;73.42;95471.95;1645443;86;20987;-67
2021/10/19 03:46:09;;;;;;;24.85;17.92;;;;;;;4.44;73.96;95464.76;1649277;86;21558;-67
2021/10/19 03:48:35;;;;;;;27.82;18.65;;;;;;;4.51;74.18;95467.47;1648690;86;21069;-65
2021/10/19 03:51:02;;;;;;;33.10;22.32;;;;;;;4.63;74.34;95469.20;1639569;85;21090;-66
2021/10/19 03:53:30;;;;;;;45.90;29.30;;;;;;;4.70;73.95;95460.23;1645001;87;20999;-67
2021/10/19 03:55:56;;;;;;;49.50;29.70;;;;;;;4.63;74.11;95456.17;1639688;85;20990;-66
2021/10/19 03:58:23;;;;;;;39.90;27.40;;;;;;;4.64;74.66;95463.17;1632953;86;21163;-67
2021/10/19 04:00:50;;;;;;;55.98;26.42;;;;;;;4.81;74.52;95465.09;1631220;86;21466;-66
2021/10/19 04:03:16;;;;;;;24.63;16.75;;;;;;;4.88;74.20;95469.95;1638868;87;21066;-68
2021/10/19 04:05:43;;;;;;;23.75;17.05;;;;;;;4.94;74.06;95462.16;1637111;86;21185;-66
2021/10/19 04:08:10;;;;;;;23.00;16.20;;;;;;;4.91;73.79;95461.55;1629876;86;21563;-67
2021/10/19 04:10:36;;;;;;;21.05;16.95;;;;;;;4.95;74.22;95474.02;1632710;86;21223;-67
2021/10/19 04:13:03;;;;;;;21.02;15.08;;;;;;;5.07;73.79;95476.33;1636577;85;20983;-67
2021/10/19 04:15:30;;;;;;;23.77;16.57;;;;;;;5.14;73.49;95476.89;1633319;85;21019;-65
2021/10/19 04:17:56;;;;;;;27.60;18.35;;;;;;;5.20;73.80;95484.28;1628946;86;21031;-66
2021/10/19 04:20:23;;;;;;;43.48;27.67;;;;;;;5.35;73.67;95487.13;1631678;85;21463;-66
2021/10/19 04:22:49;;;;;;;85.65;46.73;;;;;;;5.42;73.32;95485.76;1634746;85;21140;-67
2021/10/19 04:25:16;;;;;;;68.83;38.73;;;;;;;5.46;73.10;95489.24;1629356;86;21094;-66
2021/10/19 04:27:43;;;;;;;84.07;47.23;;;;;;;5.49;72.80;95489.23;1625383;86;21466;-67
2021/10/19 04:30:11;;;;;;;56.30;36.90;;;;;;;5.50;73.05;95485.91;1637422;85;20991;-67
2021/10/19 04:32:38;;;;;;;57.98;37.15;;;;;;;5.59;72.81;95490.37;1645141;87;21092;-67
2021/10/19 04:35:06;;;;;;;75.47;42.00;;;;;;;5.57;72.33;95489.98;1637019;85;21812;-67
2021/10/19 04:37:32;;;;;;;60.70;37.58;;;;;;;5.49;72.48;95488.45;1634396;86;20975;-67
2021/10/19 04:40:00;;;;;;;54.23;32.55;;;;;;;5.46;72.51;95485.15;1642313;86;20978;-67
2021/10/19 04:42:29;;;;;;;52.40;31.60;;;;;;;5.37;72.51;95492.97;1650318;86;21079;-67
2021/10/19 04:44:55;;;;;;;44.77;29.30;;;;;;;5.27;72.81;95489.70;1632969;86;21110;-66
2021/10/19 04:47:22;;;;;;;61.33;34.53;;;;;;;5.25;72.96;95482.51;1645932;86;21168;-68
2021/10/19 04:49:49;;;;;;;52.15;32.78;;;;;;;5.24;73.38;95480.95;1642217;86;20995;-66
2021/10/19 04:52:15;;;;;;;57.13;33.38;;;;;;;5.29;73.51;95483.27;1629525;86;21549;-67
2021/10/19 04:54:42;;;;;;;55.60;33.38;;;;;;;5.39;73.78;95479.73;1637530;85;20986;-67
2021/10/19 04:57:08;;;;;;;49.75;31.35;;;;;;;5.49;73.60;95485.14;1637690;85;21090;-66
2021/10/19 04:59:36;;;;;;;60.75;35.48;;;;;;;5.58;73.44;95484.11;1644745;86;21169;-68
2021/10/19 05:02:03;;;;;;;61.00;37.45;;;;;;;5.67;73.36;95474.92;1644693;87;21050;-67
2021/10/19 05:04:31;;;;;;;56.92;38.40;;;;;;;5.75;73.20;95481.13;1640963;85;21027;-69
2021/10/19 05:06:57;;;;;;;72.22;40.78;;;;;;;5.77;73.19;95478.17;1637600;86;21027;-68
2021/10/19 05:09:24;;;;;;;114.65;63.20;;;;;;;5.84;73.25;95471.92;1632984;85;21027;-68
2021/10/19 05:11:53;;;;;;;149.55;64.70;;;;;;;5.94;73.12;95472.47;1633881;85;21842;-67
2021/10/19 05:14:21;;;;;;;99.90;57.93;;;;;;;6.06;72.96;95480.17;1639974;87;20999;-68
2021/10/19 05:16:48;;;;;;;101.80;53.65;;;;;;;6.20;72.80;95477.35;1648389;85;21094;-68
2021/10/19 05:19:15;;;;;;;78.78;46.48;;;;;;;6.28;72.57;95477.48;1640631;85;21642;-67
2021/10/19 05:21:41;;;;;;;82.17;45.85;;;;;;;6.33;72.61;95489.37;1630534;85;21085;-64
2021/10/19 05:24:08;;;;;;;70.57;44.25;;;;;;;6.33;72.72;95488.00;1634443;85;21160;-67
2021/10/19 05:26:36;;;;;;;92.70;50.92;;;;;;;6.42;72.66;95484.20;1654121;84;21030;-66
2021/10/19 05:29:02;;;;;;;62.67;39.20;;;;;;;6.55;72.13;95492.11;1648533;85;21049;-68
2021/10/19 05:31:29;;;;;;;66.87;42.30;;;;;;;6.60;71.47;95491.67;1644422;85;21149;-65
2021/10/19 05:33:56;;;;;;;63.10;34.20;;;;;;;6.52;71.39;95498.39;1644739;85;21096;-63
2021/10/19 05:36:22;;;;;;;60.55;33.55;;;;;;;6.42;71.25;95497.88;1651730;84;21829;-64
2021/10/19 05:38:50;;;;;;;61.55;34.60;;;;;;;6.30;71.30;95501.10;1640562;85;21082;-66
2021/10/19 05:41:17;;;;;;;82.65;38.60;;;;;;;6.27;71.82;95501.88;1640591;85;21082;-68
2021/10/19 05:43:45;;;;;;;87.85;47.88;;;;;;;6.34;72.12;95499.88;1640557;84;21569;-63
2021/10/19 05:46:12;;;;;;;87.57;51.75;;;;;;;6.49;72.20;95494.50;1641490;84;21609;-66
2021/10/19 05:48:39;;;;;;;75.47;42.80;;;;;;;6.67;72.10;95502.57;1639071;85;21285;-65
2021/10/19 05:51:06;;;;;;;70.17;37.25;;;;;;;6.72;72.01;95504.25;1646469;85;21592;-66
2021/10/19 05:53:33;;;;;;;61.00;37.10;;;;;;;6.75;72.00;95502.69;1635075;86;21072;-68
2021/10/19 05:56:01;;;;;;;70.70;45.50;;;;;;;6.84;71.97;95505.72;1635051;85;22031;-71
2021/10/19 05:58:29;;;;;;;74.42;47.60;;;;;;;6.91;71.86;95507.80;1641255;85;22295;-69
2021/10/19 06:00:55;;;;;;;72.72;46.88;;;;;;;6.96;71.96;95516.16;1651861;84;21172;-66
2021/10/19 06:03:22;;;;;;;62.23;42.80;;;;;;;6.97;71.99;95510.88;1641847;84;21385;-74
2021/10/19 06:05:49;;;;;;;67.97;42.83;;;;;;;7.02;71.99;95504.37;1652118;84;21100;-63
2021/10/19 06:08:16;;;;;;;54.55;36.28;;;;;;;7.13;71.50;95500.96;1639655;84;21492;-68
2021/10/19 06:10:43;;;;;;;50.10;33.05;;;;;;;7.31;70.78;95513.27;1647753;85;21118;-63
2021/10/19 06:13:10;;;;;;;57.98;38.28;;;;;;;7.36;70.16;95508.70;1654532;84;21110;-69
2021/10/19 06:15:37;;;;;;;56.63;37.20;;;;;;;7.43;70.23;95507.27;1651265;84;21070;-63
2021/10/19 06:18:04;;;;;;;63.38;36.35;;;;;;;7.53;70.02;95510.47;1640640;84;21601;-62
2021/10/19 06:20:31;;;;;;;57.03;36.23;;;;;;;7.63;69.77;95508.21;1649338;84;21189;-65
2021/10/19 06:23:02;;;;;;;66.42;33.55;;;;;;;7.73;69.40;95511.39;1646544;85;21516;-62
2021/10/19 06:25:30;;;;;;;56.15;33.60;;;;;;;7.79;69.23;95513.09;1643472;84;21141;-63
2021/10/19 06:27:58;;;;;;;55.73;37.70;;;;;;;7.82;69.24;95513.05;1649685;84;20919;-64
2021/10/19 06:30:25;;;;;;;56.05;35.20;;;;;;;7.81;69.54;95515.62;1634968;84;21117;-63
2021/10/19 06:32:52;;;;;;;56.08;36.08;;;;;;;7.87;69.50;95513.96;1634706;85;21508;-69
2021/10/19 06:35:20;;;;;;;73.83;39.78;;;;;;;7.92;69.47;95517.61;1632085;84;21140;-65
2021/10/19 06:37:47;;;;;;;59.33;33.50;;;;;;;7.92;69.25;95519.59;1630801;86;21322;-71
2021/10/19 06:40:14;;;;;;;50.70;32.28;;;;;;;7.91;69.07;95524.27;1643883;85;21103;-70
2021/10/19 06:42:42;;;;;;;54.00;32.17;;;;;;;7.85;68.66;95520.45;1650015;84;22619;-60
2021/10/19 06:45:10;;;;;;;60.63;33.65;;;;;;;7.78;68.85;95515.07;1644751;85;21097;-61
2021/10/19 06:47:38;;;;;;;68.87;38.42;;;;;;;7.85;69.18;95521.82;1643225;85;21517;-71
2021/10/19 06:50:07;;;;;;;60.55;36.10;;;;;;;8.00;69.38;95525.14;1642760;84;21143;-64
2021/10/19 06:52:38;;;;;;;56.58;36.03;;;;;;;8.14;69.32;95528.49;1637795;85;21061;-62
2021/10/19 06:55:06;;;;;;;67.87;44.48;;;;;;;8.18;69.59;95529.83;1649444;84;21061;-67
2021/10/19 06:57:43;;;;;;;82.82;49.38;;;;;;;8.19;69.88;95521.20;1641440;84;21139;-73
2021/10/19 07:00:12;;;;;;;78.52;49.03;;;;;;;8.24;69.88;95517.98;1637545;85;21026;-68
2021/10/19 07:02:39;;;;;;;91.53;56.00;;;;;;;8.27;69.75;95525.38;1648557;85;21161;-65
2021/10/19 07:05:06;;;;;;;88.95;51.77;;;;;;;8.26;69.56;95522.46;1640927;85;21070;-62
2021/10/19 07:07:33;;;;;;;86.20;48.52;;;;;;;8.36;69.39;95522.13;1655242;84;21904;-66
2021/10/19 07:10:01;;;;;;;84.58;48.65;;;;;;;8.44;69.08;95524.36;1606485;86;21073;-64
2021/10/19 07:12:28;;;;;;;109.92;63.10;;;;;;;8.45;69.32;95523.16;1637867;85;21108;-62
2021/10/19 07:14:56;;;;;;;127.00;72.42;;;;;;;8.45;69.43;95526.52;1632446;85;21554;-66
2021/10/19 07:17:25;;;;;;;107.32;63.20;;;;;;;8.49;69.61;95521.17;1642774;85;20919;-61
2021/10/19 07:19:52;;;;;;;105.97;64.62;;;;;;;8.57;69.81;95526.72;1645926;85;21132;-66
2021/10/19 07:22:19;;;;;;;112.97;61.08;;;;;;;8.62;69.82;95524.86;1651825;84;21159;-61
2021/10/19 07:24:46;;;;;;;98.67;58.48;;;;;;;8.71;69.68;95519.64;1639273;85;21169;-64
2021/10/19 07:27:13;;;;;;;72.82;45.48;;;;;;;8.78;69.78;95523.63;1631387;85;21130;-64
2021/10/19 07:29:40;;;;;;;48.80;27.50;;;;;;;8.96;69.40;95520.00;1645381;84;21101;-59
2021/10/19 07:32:07;;;;;;;27.05;17.00;;;;;;;9.12;67.97;95526.98;1648923;85;21088;-70
2021/10/19 07:34:39;;;;;;;29.32;14.25;;;;;;;9.19;66.94;95522.16;1602333;86;21081;-74
2021/10/19 07:37:06;;;;;;;23.62;14.10;;;;;;;9.27;66.02;95524.17;1641175;85;21327;-74
2021/10/19 07:39:35;;;;;;;31.00;15.28;;;;;;;9.39;65.67;95520.80;1642473;84;21597;-71
2021/10/19 07:42:02;;;;;;;23.60;16.10;;;;;;;9.53;64.79;95527.41;1642133;84;21086;-71
2021/10/19 07:44:29;;;;;;;25.55;16.15;;;;;;;9.74;64.78;95520.13;1642527;85;21091;-69
2021/10/19 07:46:55;;;;;;;28.45;18.15;;;;;;;9.86;63.52;95523.62;1637460;84;22377;-71
2021/10/19 07:49:23;;;;;;;23.18;15.93;;;;;;;9.93;63.46;95517.97;1637447;85;21638;-73
2021/10/19 07:51:50;;;;;;;21.50;13.72;;;;;;;10.02;63.70;95526.47;1649886;84;21145;-63
2021/10/19 07:54:18;;;;;;;23.55;12.82;;;;;;;10.07;63.48;95528.70;1638298;85;21088;-67
2021/10/19 07:56:45;;;;;;;21.00;12.18;;;;;;;10.18;63.03;95533.39;1648320;84;21080;-70
2021/10/19 07:59:11;;;;;;;22.00;13.55;;;;;;;10.25;62.92;95531.86;1656950;84;21146;-70
2021/10/19 08:01:38;;;;;;;20.23;14.40;;;;;;;10.31;61.81;95538.42;1644327;84;20998;-59
2021/10/19 08:04:05;;;;;;;18.80;12.50;;;;;;;10.39;61.06;95540.56;1646825;84;21137;-74
2021/10/19 08:06:32;;;;;;;17.30;12.25;;;;;;;10.36;60.63;95530.42;1653119;85;21118;-72
2021/10/19 08:09:02;;;;;;;19.07;12.63;;;;;;;10.32;60.41;95536.61;1649939;85;21547;-68
2021/10/19 08:11:29;;;;;;;20.80;13.03;;;;;;;10.25;60.42;95535.98;1655896;84;21302;-68
2021/10/19 08:13:58;;;;;;;29.65;13.93;;;;;;;10.26;60.38;95536.16;1637164;84;21471;-72
2021/10/19 08:16:25;;;;;;;25.68;15.15;;;;;;;10.36;60.40;95533.17;1654367;84;21154;-68
2021/10/19 08:18:54;;;;;;;18.02;13.05;;;;;;;10.52;60.14;95532.45;1641857;85;21072;-73
2021/10/19 08:21:21;;;;;;;26.57;14.68;;;;;;;10.64;59.87;95534.52;1626860;86;21050;-68
2021/10/19 08:23:48;;;;;;;20.68;14.65;;;;;;;10.69;59.57;95535.41;1648496;84;21579;-73
2021/10/19 08:26:15;;;;;;;24.35;13.93;;;;;;;10.78;60.16;95543.23;1630879;85;21121;-70
2021/10/19 08:28:44;;;;;;;21.55;13.72;;;;;;;10.99;60.76;95541.35;1645640;84;21215;-67
2021/10/19 08:31:11;;;;;;;23.70;15.10;;;;;;;11.18;60.23;95535.73;1638348;84;21064;-70
2021/10/19 08:33:38;;;;;;;28.77;15.13;;;;;;;11.34;59.96;95535.72;1642221;84;22047;-64
2021/10/19 08:36:07;;;;;;;21.00;12.93;;;;;;;11.49;59.51;95536.91;1633482;85;21066;-71
2021/10/19 08:38:36;;;;;;;18.65;12.70;;;;;;;11.58;59.43;95532.98;1622786;86;21070;-68
2021/10/19 08:41:03;;;;;;;16.25;11.25;;;;;;;11.66;59.39;95535.70;1646027;85;21853;-62
2021/10/19 08:43:32;;;;;;;21.73;13.30;;;;;;;11.70;58.75;95534.99;1632178;85;21042;-67
2021/10/19 08:45:58;;;;;;;24.82;14.93;;;;;;;11.69;58.34;95533.45;1630970;86;21045;-72
2021/10/19 08:48:25;;;;;;;21.23;12.95;;;;;;;11.68;58.11;95533.28;1640338;84;21098;-73
2021/10/19 08:50:58;;;;;;;24.95;15.78;;;;;;;11.67;57.99;95540.00;1612470;87;21189;-70
2021/10/19 08:53:25;;;;;;;25.45;13.98;;;;;;;11.69;58.07;95533.45;1644152;85;21098;-63
2021/10/19 08:55:53;;;;;;;23.75;13.30;;;;;;;11.75;57.91;95535.83;1644679;85;21511;-71
2021/10/19 08:58:19;;;;;;;23.05;13.85;;;;;;;11.82;57.63;95539.00;1643631;86;21108;-74
2021/10/19 09:00:46;;;;;;;18.92;12.45;;;;;;;11.82;57.44;95527.98;1642517;84;21113;-72
2021/10/19 09:03:13;;;;;;;21.90;12.23;;;;;;;11.83;57.38;95528.94;1638461;86;23137;-66
2021/10/19 09:05:43;;;;;;;31.55;14.23;;;;;;;11.91;57.79;95523.38;1637825;84;21089;-72
2021/10/19 09:08:14;;;;;;;24.12;12.37;;;;;;;12.04;57.67;95517.92;1615968;85;21046;-74
2021/10/19 09:10:42;;;;;;;20.88;11.97;;;;;;;12.20;57.55;95517.82;1621523;84;22592;-73
2021/10/19 09:13:15;;;;;;;21.50;13.40;;;;;;;12.37;57.71;95522.84;1575294;88;21042;-69
2021/10/19 11:23:51;;;;;;;14.90;9.43;;;;;;;13.03;56.86;95484.86;1633463;85;20977;-57
2021/10/19 11:26:18;;;;;;;21.30;11.10;;;;;;;13.01;57.18;95480.98;1626917;86;21134;-65
2021/10/19 11:28:46;;;;;;;25.90;11.70;;;;;;;13.01;57.16;95483.75;1619083;86;21120;-56
2021/10/19 11:31:13;;;;;;;21.48;12.65;;;;;;;13.02;57.31;95483.91;1617588;86;22146;-58
2021/10/19 11:33:43;;;;;;;22.10;11.80;;;;;;;13.02;57.33;95483.31;1643650;86;21076;-58
2021/10/19 11:36:10;;;;;;;16.93;10.85;;;;;;;13.00;57.54;95480.23;1629623;84;21029;-57
2021/10/19 11:38:43;;;;;;;18.82;9.58;;;;;;;13.03;57.64;95478.55;1620523;86;22032;-58
2021/10/19 11:41:12;;;;;;;17.48;9.93;;;;;;;13.07;57.54;95475.08;1639552;85;21046;-57
2021/10/19 11:43:44;;;;;;;17.80;8.83;;;;;;;13.11;57.54;95474.34;1590960;88;21280;-54
2021/10/19 11:46:13;;;;;;;11.38;5.78;;;;;;;13.18;57.38;95479.63;1614521;86;21451;-54
2021/10/19 11:48:40;;;;;;;16.50;6.75;;;;;;;13.26;56.91;95483.09;1598724;87;22101;-60
2021/10/19 11:51:11;;;;;;;13.28;7.05;;;;;;;13.32;56.58;95479.16;1604395;87;21123;-61
2021/10/19 11:53:41;;;;;;;12.60;6.78;;;;;;;13.35;56.50;95471.34;1597681;87;21081;-58
2021/10/19 11:56:12;;;;;;;8.48;5.87;;;;;;;13.39;56.60;95473.37;1613954;86;21065;-59
2021/10/19 11:58:51;;;;;;;21.73;10.40;;;;;;;13.41;56.15;95466.19;1610075;86;21058;-59
2021/10/19 12:01:24;;;;;;;13.53;8.00;;;;;;;13.44;56.42;95461.77;1596776;86;21241;-59
2021/10/19 12:04:01;;;;;;;14.63;6.97;;;;;;;13.56;56.25;95461.71;1614409;87;21084;-56
2021/10/19 12:06:30;;;;;;;15.05;7.50;;;;;;;13.73;55.60;95460.31;1594753;87;21032;-56
2021/10/19 12:08:59;;;;;;;14.93;5.97;;;;;;;13.88;55.19;95450.87;1605038;87;21089;-55
2021/10/19 12:11:27;;;;;;;8.10;5.12;;;;;;;14.05;54.98;95451.63;1595040;88;21066;-56
2021/10/19 12:13:57;;;;;;;12.37;6.70;;;;;;;14.27;54.31;95444.08;1596579;87;21145;-58
2021/10/19 12:16:28;;;;;;;14.90;6.58;;;;;;;14.62;53.82;95446.23;1597202;88;21763;-54
2021/10/19 12:18:59;;;;;;;12.93;6.40;;;;;;;15.37;52.82;95442.73;1595236;87;21032;-60
2021/10/19 12:21:27;;;;;;;11.65;5.60;;;;;;;16.61;50.64;95445.84;1581726;88;21084;-58
2021/10/19 12:24:00;;;;;;;13.45;4.58;;;;;;;17.85;48.32;95435.66;1589526;87;21663;-57
2021/10/19 12:26:30;;;;;;;14.03;3.95;;;;;;;18.87;45.15;95438.60;1593133;88;21065;-59
2021/10/19 12:29:00;;;;;;;8.63;3.58;;;;;;;19.72;43.52;95434.61;1591670;87;21155;-59
2021/10/19 12:31:27;;;;;;;6.33;3.10;;;;;;;20.25;41.42;95437.16;1599029;88;21064;-56
2021/10/19 12:34:04;;;;;;;7.65;4.55;;;;;;;20.18;40.06;95452.19;1582739;88;22152;-57
2021/10/19 12:36:34;;;;;;;8.23;4.22;;;;;;;19.60;40.51;95445.48;1578021;88;21490;-59
2021/10/19 12:39:09;;;;;;;6.85;3.10;;;;;;;19.10;41.38;95448.22;1597663;89;21041;-57
2021/10/19 12:41:37;;;;;;;6.40;3.12;;;;;;;18.54;42.08;95445.03;1588547;89;21550;-59
2021/10/19 12:44:04;;;;;;;16.85;4.97;;;;;;;18.17;43.34;95448.67;1571287;89;21074;-57
2021/10/19 12:46:32;;;;;;;5.30;4.47;;;;;;;18.09;43.76;95451.06;1586916;90;21481;-58
2021/10/19 12:49:00;;;;;;;6.35;4.00;;;;;;;17.87;43.75;95444.30;1586629;89;21733;-56
2021/10/19 12:51:27;;;;;;;9.85;4.47;;;;;;;17.56;44.45;95453.05;1594274;88;21868;-57
2021/10/19 12:53:54;;;;;;;10.60;4.50;;;;;;;17.36;45.00;95449.32;1590315;88;21124;-56
2021/10/19 12:56:27;;;;;;;10.00;4.67;;;;;;;17.09;45.52;95449.47;1596048;88;21458;-56
2021/10/19 12:58:55;;;;;;;10.70;4.72;;;;;;;16.99;45.97;95444.58;1590297;87;21471;-56
2021/10/19 13:01:21;;;;;;;9.33;6.12;;;;;;;16.91;46.17;95448.93;1607863;87;21547;-56
2021/10/19 13:03:48;;;;;;;6.33;3.40;;;;;;;16.78;46.64;95451.78;1605137;87;21125;-57
2021/10/19 13:06:18;;;;;;;16.75;5.15;;;;;;;16.68;46.38;95450.27;1645808;85;21146;-57
2021/10/19 13:08:47;;;;;;;11.65;5.80;;;;;;;16.51;46.72;95454.67;1630388;85;21069;-58
2021/10/19 13:11:14;;;;;;;11.45;4.60;;;;;;;16.22;47.21;95456.40;1635869;85;21031;-56
2021/10/19 13:13:42;;;;;;;16.87;9.70;;;;;;;16.07;47.72;95461.83;1596488;88;21559;-56
2021/10/19 13:16:09;;;;;;;16.97;5.58;;;;;;;15.92;48.15;95460.16;1617299;85;21288;-57
2021/10/19 13:18:38;;;;;;;13.45;5.70;;;;;;;15.75;48.48;95451.37;1637855;85;21400;-55
2021/10/19 13:21:06;;;;;;;12.03;8.88;;;;;;;15.62;48.80;95453.55;1641151;85;20991;-57
2021/10/19 13:23:34;;;;;;;10.13;7.12;;;;;;;15.53;49.45;95450.77;1640331;86;21092;-56
2021/10/19 13:26:03;;;;;;;14.35;10.45;;;;;;;15.53;49.39;95445.84;1617167;86;21493;-60
2021/10/19 13:28:33;;;;;;;15.32;10.40;;;;;;;15.48;49.85;95435.34;1611982;86;21031;-57
2021/10/19 13:31:01;;;;;;;8.60;6.85;;;;;;;15.45;49.78;95443.99;1642136;86;21124;-59
2021/10/19 13:33:28;;;;;;;11.60;8.95;;;;;;;15.45;49.54;95443.99;1633024;86;21026;-56
2021/10/19 13:35:59;;;;;;;15.72;13.53;;;;;;;15.42;49.69;95447.69;1627529;85;21074;-56